Time;durP1;ratioP1;P1;durP2;ratioP2;P2;SDS_P1;SDS_P2;PMS_P1;PMS_P2;Temp;Humidity;BMP_temperature;BMP_pressure;BME280_temperature;BME280_humidity;BME280_pressure;Samples;Min_cycle;Max_cycle;Signal;HPM_P1;HPM_P2
2023/10/08 00:01:17;;;;;;;1.27;0.20;;;14.60;99.90;;;;;;4983920;28;20045;-74
2023/10/08 00:03:53;;;;;;;0.45;0.45;;;14.60;99.90;;;;;;4984017;28;20118;-74
2023/10/08 00:06:21;;;;;;;0.63;0.20;;;14.50;99.90;;;;;;4985338;28;20046;-75
2023/10/08 00:08:47;;;;;;;0.40;0.22;;;14.50;99.90;;;;;;4985394;28;20119;-75
2023/10/08 00:11:15;;;;;;;0.43;0.10;;;14.50;99.90;;;;;;4984465;28;20517;-73
2023/10/08 00:13:48;;;;;;;0.28;0.28;;;14.50;99.90;;;;;;4983716;28;20519;-74
2023/10/08 00:16:17;;;;;;;0.20;0.20;;;14.50;99.90;;;;;;4983732;28;20180;-75
2023/10/08 00:18:50;;;;;;;0.63;0.63;;;14.40;99.90;;;;;;4982378;28;20050;-75
2023/10/08 00:21:17;;;;;;;2.13;0.30;;;14.40;99.90;;;;;;4983556;28;20085;-74
2023/10/08 00:23:52;;;;;;;1.75;0.22;;;14.30;99.90;;;;;;4997184;28;20584;-73
2023/10/08 00:26:27;;;;;;;1.75;0.20;;;14.30;99.90;;;;;;5014249;28;20042;-76
2023/10/08 00:29:15;;;;;;;0.22;0.22;;;14.30;99.90;;;;;;4994163;28;20038;-75
2023/10/08 00:31:41;;;;;;;0.80;0.30;;;14.30;99.90;;;;;;4999146;28;20034;-75
2023/10/08 00:34:14;;;;;;;1.45;0.20;;;14.30;99.90;;;;;;4994772;28;20092;-74
2023/10/08 00:36:45;;;;;;;2.50;0.20;;;14.30;99.90;;;;;;4989414;28;20697;-75
2023/10/08 00:39:16;;;;;;;1.05;0.30;;;14.20;99.90;;;;;;4983433;28;20052;-75
2023/10/08 00:41:45;;;;;;;0.57;0.40;;;14.20;99.90;;;;;;4992491;28;20717;-74
2023/10/08 00:44:15;;;;;;;2.05;0.47;;;14.30;99.90;;;;;;5004411;28;20100;-75
2023/10/08 00:46:47;;;;;;;0.10;0.10;;;14.20;99.90;;;;;;4991357;28;20046;-75
2023/10/08 00:51:47;;;;;;;1.45;0.38;;;14.30;99.90;;;;;;5002657;28;20123;-74
2023/10/08 00:54:17;;;;;;;0.20;0.20;;;14.30;99.90;;;;;;4994428;28;20046;-75
2023/10/08 00:56:57;;;;;;;0.93;0.30;;;14.30;99.90;;;;;;4993447;28;20133;-75
2023/10/08 00:59:33;;;;;;;0.30;0.28;;;14.30;99.90;;;;;;4984087;28;20049;-74
2023/10/08 01:01:59;;;;;;;0.20;0.20;;;14.30;99.90;;;;;;4984392;28;20092;-73
2023/10/08 01:04:33;;;;;;;0.40;0.40;;;14.30;99.90;;;;;;4982302;28;20050;-74
2023/10/08 01:07:13;;;;;;;1.35;0.30;;;14.30;99.90;;;;;;4986769;28;20074;-74
2023/10/08 01:09:42;;;;;;;1.00;0.80;;;14.30;99.90;;;;;;4991575;28;20041;-76
2023/10/08 01:12:13;;;;;;;0.50;0.30;;;14.20;99.90;;;;;;4995541;28;20446;-74
2023/10/08 01:14:42;;;;;;;2.78;0.35;;;14.20;99.90;;;;;;4996971;28;20125;-76
2023/10/08 01:17:14;;;;;;;0.32;0.32;;;14.20;99.90;;;;;;4985280;28;20615;-74
2023/10/08 01:19:42;;;;;;;0.75;0.65;;;14.20;99.90;;;;;;4983707;28;20037;-74
2023/10/08 01:22:08;;;;;;;0.15;0.15;;;14.20;99.90;;;;;;5000090;28;20061;-75
2023/10/08 01:24:36;;;;;;;0.68;0.35;;;14.20;99.90;;;;;;4998099;28;20054;-74
2023/10/08 01:27:04;;;;;;;1.85;0.30;;;14.20;99.90;;;;;;4989394;28;20137;-75
2023/10/08 01:29:31;;;;;;;1.13;0.30;;;14.20;99.90;;;;;;5003162;28;20092;-74
2023/10/08 01:31:57;;;;;;;1.00;0.30;;;14.20;99.90;;;;;;5001527;28;20038;-74
2023/10/08 01:34:35;;;;;;;0.40;0.20;;;14.20;99.90;;;;;;4982393;28;20046;-74
2023/10/08 01:37:05;;;;;;;0.60;0.22;;;14.20;99.90;;;;;;4983940;28;20043;-75
2023/10/08 01:39:32;;;;;;;1.45;0.50;;;14.20;99.90;;;;;;4982083;28;20035;-74
2023/10/08 01:41:57;;;;;;;0.40;0.20;;;14.20;99.90;;;;;;4968636;28;20527;-74
2023/10/08 01:44:24;;;;;;;0.63;0.30;;;14.20;99.90;;;;;;5001289;28;20053;-74
2023/10/08 01:46:49;;;;;;;0.55;0.45;;;14.20;99.90;;;;;;4999944;28;20050;-75
2023/10/08 01:49:16;;;;;;;0.20;0.20;;;14.20;99.90;;;;;;4999232;28;20049;-75
2023/10/08 01:51:49;;;;;;;0.77;0.20;;;14.20;99.90;;;;;;5000973;28;20037;-74
2023/10/08 01:54:17;;;;;;;0.20;0.20;;;14.20;99.90;;;;;;4983768;28;20085;-75
2023/10/08 01:56:43;;;;;;;2.05;0.20;;;14.20;99.90;;;;;;5001497;28;20070;-75
2023/10/08 01:59:13;;;;;;;0.10;0.10;;;14.20;99.90;;;;;;4982993;28;20675;-75
2023/10/08 02:01:40;;;;;;;0.32;0.20;;;14.20;99.90;;;;;;5009444;28;20065;-75
2023/10/08 02:04:11;;;;;;;0.82;0.20;;;14.20;99.90;;;;;;5000336;28;20132;-74
2023/10/08 02:06:39;;;;;;;0.32;0.30;;;14.10;99.90;;;;;;4984586;28;20125;-75
2023/10/08 02:09:08;;;;;;;1.15;0.47;;;14.20;99.90;;;;;;4995606;28;20053;-75
2023/10/08 02:11:53;;;;;;;0.88;0.47;;;14.10;99.90;;;;;;4989281;28;20049;-73
2023/10/08 02:14:20;;;;;;;0.80;0.13;;;14.10;99.90;;;;;;5001026;28;20124;-74
2023/10/08 02:16:46;;;;;;;0.30;0.30;;;14.10;99.90;;;;;;4997211;28;20154;-73
2023/10/08 02:19:13;;;;;;;0.20;0.20;;;14.10;99.90;;;;;;4981094;28;20034;-73
2023/10/08 02:21:39;;;;;;;0.30;0.30;;;14.10;99.90;;;;;;4991358;28;20038;-75
2023/10/08 02:24:11;;;;;;;0.17;0.10;;;14.10;99.90;;;;;;5001224;28;20057;-74
2023/10/08 02:26:37;;;;;;;0.22;0.20;;;14.10;99.90;;;;;;4965932;28;20047;-73
2023/10/08 02:29:10;;;;;;;0.15;0.15;;;14.10;99.90;;;;;;4984594;28;20137;-74
2023/10/08 02:31:39;;;;;;;0.20;0.20;;;14.10;99.90;;;;;;4976659;28;20480;-73
2023/10/08 02:34:08;;;;;;;0.32;0.32;;;14.10;99.90;;;;;;4999695;28;20038;-73
2023/10/08 02:36:37;;;;;;;0.95;0.20;;;14.10;99.90;;;;;;4983468;28;20121;-72
2023/10/08 02:39:21;;;;;;;2.65;0.55;;;14.10;99.90;;;;;;4982729;28;20069;-73
2023/10/08 02:41:47;;;;;;;0.93;0.43;;;14.10;99.90;;;;;;4982283;28;20050;-73
2023/10/08 02:44:14;;;;;;;4.25;0.50;;;14.00;99.90;;;;;;5001109;28;20052;-74
2023/10/08 02:46:47;;;;;;;0.20;0.20;;;14.10;99.90;;;;;;4999690;28;20050;-74
2023/10/08 02:49:20;;;;;;;1.13;0.20;;;14.10;99.90;;;;;;4998004;28;20091;-73
2023/10/08 02:51:47;;;;;;;1.85;0.20;;;14.10;99.90;;;;;;5000895;28;20042;-73
2023/10/08 02:54:17;;;;;;;0.82;0.30;;;14.10;99.90;;;;;;4985217;28;20057;-73
2023/10/08 02:56:51;;;;;;;0.60;0.55;;;14.10;99.90;;;;;;4985260;28;20073;-74
2023/10/08 02:59:17;;;;;;;0.25;0.20;;;14.10;99.90;;;;;;4989286;28;20046;-74
2023/10/08 03:01:42;;;;;;;3.72;0.57;;;14.10;99.90;;;;;;4986309;28;20039;-72
2023/10/08 03:04:20;;;;;;;0.40;0.30;;;14.10;99.90;;;;;;4985972;28;20061;-74
2023/10/08 03:06:52;;;;;;;2.28;0.22;;;14.10;99.90;;;;;;4985457;28;20039;-73
2023/10/08 03:09:31;;;;;;;0.20;0.20;;;14.10;99.90;;;;;;4994572;28;20049;-73
2023/10/08 03:11:58;;;;;;;0.32;0.20;;;14.10;99.90;;;;;;4987415;28;20054;-73
2023/10/08 03:14:26;;;;;;;1.05;0.52;;;14.10;99.90;;;;;;4992581;28;20045;-74
2023/10/08 03:16:53;;;;;;;1.70;0.28;;;14.10;99.90;;;;;;5004030;28;20033;-72
2023/10/08 03:19:20;;;;;;;0.40;0.40;;;14.10;99.90;;;;;;5002964;28;20128;-74
2023/10/08 03:21:56;;;;;;;1.27;0.57;;;14.10;99.90;;;;;;4987510;28;20042;-74
2023/10/08 03:27:07;;;;;;;1.27;0.47;;;14.10;99.90;;;;;;4984451;28;20050;-73
2023/10/08 03:29:42;;;;;;;0.38;0.30;;;14.10;99.90;;;;;;4989529;28;20074;-73
2023/10/08 03:32:13;;;;;;;0.68;0.32;;;14.10;99.90;;;;;;4985259;28;20054;-73
2023/10/08 03:34:43;;;;;;;0.45;0.28;;;14.10;99.90;;;;;;4997311;28;20145;-74
2023/10/08 03:37:09;;;;;;;0.65;0.17;;;14.10;99.90;;;;;;4984474;28;20559;-74
2023/10/08 03:42:23;;;;;;;4.75;0.43;;;14.10;99.90;;;;;;4984121;28;20572;-72
2023/10/08 03:44:54;;;;;;;2.00;0.40;;;14.10;99.90;;;;;;4997234;28;20484;-72
2023/10/08 03:47:22;;;;;;;1.00;0.40;;;14.10;99.90;;;;;;4986999;28;20377;-74
2023/10/08 03:49:51;;;;;;;2.92;0.35;;;14.10;99.90;;;;;;4999924;28;20034;-73
2023/10/08 03:52:22;;;;;;;2.17;0.47;;;14.10;99.90;;;;;;4984547;28;20093;-74
2023/10/08 03:54:48;;;;;;;1.17;0.50;;;14.00;99.90;;;;;;4985695;28;20048;-73
2023/10/08 03:57:24;;;;;;;0.90;0.30;;;14.00;99.90;;;;;;4984007;28;20063;-73
2023/10/08 03:59:55;;;;;;;2.67;0.55;;;14.00;99.90;;;;;;4998334;28;20050;-74
2023/10/08 04:02:39;;;;;;;3.75;0.98;;;14.00;99.90;;;;;;5003008;28;20037;-72
2023/10/08 04:05:18;;;;;;;1.02;0.45;;;14.00;99.90;;;;;;5004248;28;20469;-74
2023/10/08 04:13:09;;;;;;;2.00;0.47;;;14.00;99.90;;;;;;4997981;28;20073;-75
2023/10/08 04:15:41;;;;;;;0.80;0.68;;;14.00;99.90;;;;;;4984012;28;20046;-73
2023/10/08 04:18:08;;;;;;;0.52;0.45;;;14.00;99.90;;;;;;4983102;28;20089;-73
2023/10/08 04:21:00;;;;;;;1.23;0.40;;;14.00;99.90;;;;;;4984055;28;20056;-73
2023/10/08 04:23:22;;;;;;;3.97;0.73;;;14.00;99.90;;;;;;4982222;28;20050;-73
2023/10/08 04:25:54;;;;;;;1.77;0.70;;;14.00;99.90;;;;;;4985374;28;20238;-73
2023/10/08 04:28:21;;;;;;;0.70;0.65;;;14.00;99.90;;;;;;4989501;28;20176;-74
2023/10/08 04:30:50;;;;;;;1.98;0.80;;;14.10;99.90;;;;;;5000221;28;20425;-74
2023/10/08 04:33:16;;;;;;;3.53;1.00;;;14.10;99.90;;;;;;4989364;28;20687;-73
2023/10/08 04:35:55;;;;;;;2.15;1.13;;;14.00;99.90;;;;;;4983389;28;20072;-74
2023/10/08 04:38:26;;;;;;;2.22;1.13;;;14.10;99.90;;;;;;4982436;28;20093;-74
2023/10/08 04:40:52;;;;;;;2.42;1.00;;;14.10;99.90;;;;;;4983246;28;20100;-74
2023/10/08 04:43:25;;;;;;;2.17;0.82;;;14.10;99.90;;;;;;4983070;28;20050;-73
2023/10/08 04:45:56;;;;;;;2.28;0.65;;;14.00;99.90;;;;;;4988255;28;20374;-75
2023/10/08 04:48:27;;;;;;;3.10;0.82;;;14.00;99.90;;;;;;5002666;28;20072;-72
2023/10/08 04:50:59;;;;;;;2.58;0.93;;;14.00;99.90;;;;;;5002368;28;20037;-73
2023/10/08 04:53:44;;;;;;;3.35;0.70;;;14.00;99.90;;;;;;5001960;28;20046;-72
2023/10/08 04:56:16;;;;;;;2.17;1.15;;;14.00;99.90;;;;;;5002715;28;20041;-73
2023/10/08 04:58:46;;;;;;;0.60;0.60;;;14.00;99.90;;;;;;4985768;28;20096;-74
2023/10/08 05:01:17;;;;;;;2.20;0.77;;;14.00;99.90;;;;;;4993975;28;20054;-74
2023/10/08 05:04:06;;;;;;;4.43;0.75;;;14.00;99.90;;;;;;4981823;28;20049;-74
2023/10/08 05:14:34;;;;;;;3.42;0.70;;;13.90;99.90;;;;;;5003365;28;20061;-73
2023/10/08 05:17:46;;;;;;;4.28;0.68;;;13.90;99.90;;;;;;5003126;28;20038;-72
2023/10/08 05:22:44;;;;;;;0.63;0.55;;;13.90;99.90;;;;;;4982603;28;20556;-73
2023/10/08 05:33:12;;;;;;;3.80;0.40;;;13.90;99.90;;;;;;4994015;28;20077;-73
2023/10/08 05:38:13;;;;;;;4.18;0.63;;;13.90;99.90;;;;;;4994570;28;20320;-73
2023/10/08 05:52:11;;;;;;;1.13;0.65;;;13.90;99.90;;;;;;4963359;28;20050;-74
2023/10/08 06:13:09;;;;;;;2.92;0.80;;;13.80;99.90;;;;;;4992557;28;20120;-74
2023/10/08 06:16:05;;;;;;;3.20;0.50;;;13.80;99.90;;;;;;4983248;28;20132;-74
2023/10/08 06:18:32;;;;;;;6.95;0.98;;;13.80;99.90;;;;;;4987695;28;20504;-73
2023/10/08 06:21:11;;;;;;;2.05;1.10;;;13.80;99.90;;;;;;5000165;28;20737;-74
2023/10/08 06:23:39;;;;;;;1.75;0.90;;;13.80;99.90;;;;;;4969661;28;20049;-75
2023/10/08 06:26:14;;;;;;;4.53;0.65;;;13.80;99.90;;;;;;5006928;28;20053;-73
2023/10/08 06:28:44;;;;;;;4.50;0.85;;;13.80;99.90;;;;;;4988982;28;20140;-75
2023/10/08 06:31:16;;;;;;;4.53;0.98;;;13.80;99.90;;;;;;4977998;28;20042;-75
2023/10/08 06:33:43;;;;;;;2.75;0.75;;;13.80;99.90;;;;;;4992575;28;20598;-74
2023/10/08 06:38:38;;;;;;;7.25;1.35;;;13.80;99.90;;;;;;4994483;28;20120;-75
2023/10/08 06:44:02;;;;;;;1.42;0.88;;;13.80;99.90;;;;;;5003411;28;20175;-76
2023/10/08 06:46:32;;;;;;;2.80;0.77;;;13.80;99.90;;;;;;4996570;28;20053;-76
2023/10/08 06:48:59;;;;;;;1.10;0.60;;;13.80;99.90;;;;;;4988388;28;20044;-77
2023/10/08 06:51:25;;;;;;;3.92;0.82;;;13.80;99.90;;;;;;4993774;28;20065;-75
2023/10/08 06:53:53;;;;;;;2.67;0.73;;;13.80;99.90;;;;;;5005851;28;20038;-75
2023/10/08 06:56:19;;;;;;;0.57;0.57;;;13.80;99.90;;;;;;5005167;28;20549;-75
2023/10/08 06:58:49;;;;;;;1.08;0.70;;;13.80;99.90;;;;;;5004474;28;20049;-76
2023/10/08 07:01:21;;;;;;;1.48;0.68;;;13.80;99.90;;;;;;5000355;28;20602;-76
2023/10/08 07:03:49;;;;;;;2.60;0.98;;;13.80;99.90;;;;;;4983949;28;20092;-75
2023/10/08 07:06:25;;;;;;;1.30;0.68;;;13.80;99.90;;;;;;5001743;28;20050;-75
2023/10/08 07:08:55;;;;;;;2.40;0.68;;;13.80;99.90;;;;;;5004700;28;20125;-76
2023/10/08 07:11:22;;;;;;;4.05;0.80;;;13.80;99.90;;;;;;4985427;28;20069;-75
2023/10/08 07:13:48;;;;;;;3.90;0.70;;;13.80;99.90;;;;;;4985070;28;20038;-77
2023/10/08 07:16:17;;;;;;;5.90;0.95;;;13.80;99.90;;;;;;4984513;28;20057;-76
2023/10/08 07:18:51;;;;;;;4.15;1.02;;;13.80;99.90;;;;;;4985275;28;20038;-75
2023/10/08 07:21:17;;;;;;;3.30;0.60;;;13.80;99.90;;;;;;4984872;28;20125;-76
2023/10/08 07:23:59;;;;;;;1.33;0.98;;;13.90;99.90;;;;;;4984719;28;20121;-76
2023/10/08 07:26:37;;;;;;;1.50;0.63;;;13.80;99.90;;;;;;4983677;28;20054;-74
2023/10/08 07:29:09;;;;;;;2.15;0.75;;;13.80;99.90;;;;;;4972284;28;20042;-75
2023/10/08 07:31:36;;;;;;;2.00;0.90;;;13.90;99.90;;;;;;4989474;28;20053;-75
2023/10/08 07:34:15;;;;;;;2.92;1.08;;;13.80;99.90;;;;;;5002649;28;20123;-74
2023/10/08 07:36:43;;;;;;;0.95;0.60;;;13.80;99.90;;;;;;4995594;28;20054;-78
2023/10/08 07:39:20;;;;;;;4.03;1.48;;;13.80;99.90;;;;;;4996912;28;20540;-78
2023/10/08 07:41:48;;;;;;;5.65;1.67;;;13.80;99.90;;;;;;5001086;28;20068;-75
2023/10/08 07:44:13;;;;;;;3.95;1.77;;;13.80;99.90;;;;;;4994086;28;20177;-76
2023/10/08 07:46:39;;;;;;;4.65;1.40;;;13.90;99.90;;;;;;4997172;28;20115;-78
2023/10/08 07:49:05;;;;;;;1.45;0.52;;;13.90;99.90;;;;;;4987342;28;20046;-75
2023/10/08 07:51:31;;;;;;;0.77;0.50;;;13.90;99.90;;;;;;5003713;28;20045;-74
2023/10/08 07:53:56;;;;;;;2.75;0.70;;;13.90;99.90;;;;;;4998914;28;20050;-75
2023/10/08 07:56:23;;;;;;;4.07;0.73;;;14.00;99.90;;;;;;4993310;28;20572;-76
2023/10/08 07:58:49;;;;;;;1.77;1.20;;;14.00;99.90;;;;;;5003669;28;20034;-75
2023/10/08 08:01:15;;;;;;;2.17;0.40;;;14.00;99.90;;;;;;5003997;28;20073;-76
2023/10/08 08:03:45;;;;;;;1.92;0.70;;;14.10;99.90;;;;;;4985887;28;20070;-74
2023/10/08 08:06:11;;;;;;;3.25;0.70;;;14.10;99.90;;;;;;5004806;28;20053;-76
2023/10/08 08:08:38;;;;;;;3.10;1.17;;;14.10;99.90;;;;;;4984157;28;20042;-73
2023/10/08 08:11:07;;;;;;;5.25;1.25;;;14.10;99.90;;;;;;4984890;28;20054;-76
2023/10/08 08:13:36;;;;;;;6.90;0.80;;;14.10;99.90;;;;;;5001710;28;20057;-80
2023/10/08 08:16:17;;;;;;;3.30;1.00;;;14.20;99.90;;;;;;5004938;28;20042;-80
2023/10/08 08:18:57;;;;;;;2.03;1.35;;;14.10;99.90;;;;;;4998303;28;20400;-81
2023/10/08 08:21:23;;;;;;;2.88;0.50;;;14.20;99.90;;;;;;4985969;28;20050;-81
2023/10/08 08:23:50;;;;;;;4.88;0.60;;;14.20;99.90;;;;;;5003494;28;20223;-81
2023/10/08 08:26:28;;;;;;;2.38;0.77;;;14.20;99.90;;;;;;4998539;28;20095;-81
2023/10/08 08:29:01;;;;;;;3.65;0.77;;;14.20;99.90;;;;;;4993031;28;20050;-81
2023/10/08 08:31:35;;;;;;;0.40;0.40;;;14.20;99.90;;;;;;4983202;28;20046;-79
2023/10/08 08:34:03;;;;;;;2.47;0.52;;;14.20;99.90;;;;;;4983340;28;20389;-78
2023/10/08 08:36:31;;;;;;;3.50;1.20;;;14.20;99.90;;;;;;4981729;28;21061;-77
2023/10/08 08:38:57;;;;;;;1.77;0.50;;;14.20;99.90;;;;;;4998415;28;20034;-78
2023/10/08 08:41:24;;;;;;;2.45;0.40;;;14.20;99.90;;;;;;4983660;28;20134;-78
2023/10/08 08:43:57;;;;;;;3.00;0.55;;;14.20;99.90;;;;;;4983272;28;20117;-78
2023/10/08 08:46:30;;;;;;;8.70;0.85;;;14.20;99.90;;;;;;5003437;28;20501;-78
2023/10/08 08:49:00;;;;;;;3.05;0.47;;;14.20;99.90;;;;;;4981916;28;20042;-78
2023/10/08 08:51:27;;;;;;;1.13;0.82;;;14.20;99.90;;;;;;4985312;28;20460;-79
2023/10/08 08:53:52;;;;;;;1.77;0.80;;;14.20;99.90;;;;;;4999261;28;20057;-78
2023/10/08 08:56:18;;;;;;;5.57;0.95;;;14.20;99.90;;;;;;4986342;28;20045;-79
2023/10/08 08:58:44;;;;;;;4.10;1.35;;;14.20;99.90;;;;;;5002534;28;20551;-79
2023/10/08 09:01:13;;;;;;;2.65;0.65;;;14.20;99.90;;;;;;5003208;28;20049;-77
2023/10/08 09:03:39;;;;;;;1.75;0.40;;;14.30;99.90;;;;;;5002172;28;20091;-79
2023/10/08 09:06:05;;;;;;;4.32;0.95;;;14.30;99.90;;;;;;5003244;28;20041;-78
2023/10/08 09:08:42;;;;;;;3.45;0.50;;;14.30;99.90;;;;;;4985446;28;20050;-79
2023/10/08 09:11:08;;;;;;;5.38;1.35;;;14.30;99.90;;;;;;4983468;28;20161;-79
2023/10/08 09:13:35;;;;;;;4.93;0.80;;;14.30;99.90;;;;;;4985204;28;20206;-78
2023/10/08 09:16:08;;;;;;;3.97;1.23;;;14.30;99.90;;;;;;4983877;28;20125;-79
2023/10/08 09:18:34;;;;;;;1.98;0.73;;;14.40;99.90;;;;;;4999319;28;20811;-79
2023/10/08 09:21:22;;;;;;;1.85;0.50;;;14.40;99.90;;;;;;5013495;28;20084;-78
2023/10/08 09:23:54;;;;;;;3.03;0.75;;;14.40;99.90;;;;;;4999260;28;20045;-79
2023/10/08 09:26:24;;;;;;;2.53;0.65;;;14.50;99.90;;;;;;5003758;28;20049;-78
2023/10/08 09:28:51;;;;;;;0.88;0.52;;;14.50;99.90;;;;;;4985610;28;20041;-79
2023/10/08 09:31:17;;;;;;;4.72;1.35;;;14.50;99.90;;;;;;4997490;28;20050;-79
2023/10/08 09:33:53;;;;;;;2.65;0.73;;;14.40;99.90;;;;;;4981476;28;20069;-78
2023/10/08 09:36:19;;;;;;;3.25;0.82;;;14.50;99.90;;;;;;4984462;28;20074;-79
2023/10/08 09:38:48;;;;;;;0.50;0.50;;;14.40;99.90;;;;;;5001792;28;20544;-78
2023/10/08 09:41:14;;;;;;;2.88;1.25;;;14.50;99.90;;;;;;4998904;28;20060;-79
2023/10/08 09:43:41;;;;;;;3.05;0.70;;;14.40;99.90;;;;;;5000577;28;20404;-78
2023/10/08 09:46:12;;;;;;;2.45;0.75;;;14.50;99.90;;;;;;5002822;28;20399;-78
2023/10/08 09:48:41;;;;;;;1.67;0.77;;;14.50;99.90;;;;;;4968028;28;20485;-79
2023/10/08 09:51:10;;;;;;;2.88;0.40;;;14.50;99.90;;;;;;4982662;28;20138;-78
2023/10/08 09:53:55;;;;;;;0.85;0.85;;;14.50;99.90;;;;;;4988168;28;20034;-77
2023/10/08 09:56:22;;;;;;;3.42;1.08;;;14.50;99.90;;;;;;4991672;28;20042;-76
2023/10/08 09:58:49;;;;;;;2.15;1.25;;;14.50;99.90;;;;;;4995888;28;20094;-76
2023/10/08 10:01:17;;;;;;;2.40;0.77;;;14.50;99.90;;;;;;4986334;28;20407;-77
2023/10/08 10:03:44;;;;;;;2.33;0.73;;;14.50;99.90;;;;;;4999537;28;20078;-77
2023/10/08 10:06:18;;;;;;;2.28;0.40;;;14.60;99.90;;;;;;4999164;28;20037;-76
2023/10/08 10:08:48;;;;;;;0.93;0.52;;;14.60;99.90;;;;;;4999260;28;20531;-76
2023/10/08 10:11:15;;;;;;;3.75;0.98;;;14.60;99.90;;;;;;5000665;28;20384;-77
2023/10/08 10:13:48;;;;;;;6.20;0.60;;;14.60;99.90;;;;;;4998865;28;20088;-77
2023/10/08 10:16:18;;;;;;;2.67;0.70;;;14.60;99.90;;;;;;5000513;28;20392;-77
2023/10/08 10:18:48;;;;;;;1.35;0.57;;;14.60;99.90;;;;;;4998808;28;20038;-79
2023/10/08 10:21:14;;;;;;;2.72;0.85;;;14.70;99.90;;;;;;4997643;28;20045;-77
2023/10/08 10:23:50;;;;;;;4.30;1.35;;;14.70;99.90;;;;;;4979545;28;20497;-77
2023/10/08 10:26:30;;;;;;;0.65;0.65;;;14.70;99.90;;;;;;4997247;28;20462;-77
2023/10/08 10:29:26;;;;;;;4.22;1.27;;;14.70;99.90;;;;;;4992607;28;20049;-77
2023/10/08 10:31:53;;;;;;;0.60;0.57;;;14.70;99.90;;;;;;4975037;28;20065;-77
2023/10/08 10:34:30;;;;;;;6.28;1.23;;;14.80;99.90;;;;;;4963666;28;20388;-77
2023/10/08 10:37:08;;;;;;;1.23;0.65;;;14.80;99.90;;;;;;4980166;28;20050;-76
2023/10/08 10:39:39;;;;;;;2.97;0.60;;;14.80;99.90;;;;;;4981582;28;20258;-77
2023/10/08 10:42:11;;;;;;;0.73;0.40;;;14.80;99.90;;;;;;4994915;28;20137;-77
2023/10/08 10:44:36;;;;;;;5.47;0.80;;;14.90;99.90;;;;;;5000333;28;20097;-77
2023/10/08 10:47:25;;;;;;;1.15;0.95;;;14.90;99.90;;;;;;4993917;28;20279;-78
2023/10/08 10:49:53;;;;;;;3.60;0.95;;;14.90;99.90;;;;;;4990661;28;20050;-77
2023/10/08 10:52:32;;;;;;;5.05;0.77;;;15.00;99.90;;;;;;4997736;28;20050;-78
2023/10/08 10:58:11;;;;;;;2.63;0.60;;;15.00;99.90;;;;;;4986356;28;20042;-77
2023/10/08 11:03:09;;;;;;;2.42;1.17;;;15.00;99.90;;;;;;4981910;28;20050;-76
2023/10/08 11:05:37;;;;;;;3.53;0.57;;;15.10;99.90;;;;;;4995890;28;20100;-75
2023/10/08 11:08:06;;;;;;;2.97;0.63;;;15.10;99.90;;;;;;4984093;28;20290;-76
2023/10/08 11:10:33;;;;;;;7.10;0.90;;;15.10;99.90;;;;;;4986056;28;20030;-76
2023/10/08 11:13:01;;;;;;;2.88;0.52;;;15.20;99.90;;;;;;4975267;28;20116;-78
2023/10/08 11:15:40;;;;;;;1.83;0.70;;;15.20;99.90;;;;;;4995974;28;20060;-78
2023/10/08 11:18:20;;;;;;;2.58;0.50;;;15.20;99.90;;;;;;4979096;28;20487;-79
2023/10/08 11:20:53;;;;;;;2.25;0.35;;;15.30;99.90;;;;;;4985314;28;20046;-77
2023/10/08 11:23:36;;;;;;;8.85;0.88;;;15.30;99.90;;;;;;4985302;28;20113;-77
2023/10/08 11:26:06;;;;;;;0.98;0.55;;;15.30;99.90;;;;;;4987812;28;20733;-80
2023/10/08 11:28:41;;;;;;;4.57;0.82;;;15.30;99.90;;;;;;4992344;28;20176;-80
2023/10/08 11:31:10;;;;;;;1.48;1.30;;;15.40;99.90;;;;;;4990222;28;20088;-80
2023/10/08 11:33:56;;;;;;;6.60;1.00;;;15.40;99.90;;;;;;4986104;28;20049;-79
2023/10/08 11:36:29;;;;;;;1.30;0.90;;;15.40;99.90;;;;;;5000204;28;20048;-79
2023/10/08 11:39:04;;;;;;;3.13;0.88;;;15.50;99.90;;;;;;4998197;28;20132;-79
2023/10/08 11:41:30;;;;;;;1.50;0.63;;;15.50;99.90;;;;;;4994190;28;20049;-79
2023/10/08 11:43:58;;;;;;;0.50;0.50;;;15.60;99.90;;;;;;5001837;28;20997;-80
2023/10/08 11:46:38;;;;;;;1.98;0.75;;;15.60;99.90;;;;;;4984528;28;20054;-79
2023/10/08 11:49:05;;;;;;;1.20;0.60;;;15.60;99.90;;;;;;4984583;28;20133;-80
2023/10/08 11:51:34;;;;;;;4.07;0.90;;;15.70;99.90;;;;;;4993864;28;20128;-79
2023/10/08 11:54:01;;;;;;;3.90;0.73;;;15.70;99.90;;;;;;5005332;28;20065;-79
2023/10/08 11:56:32;;;;;;;5.10;0.68;;;15.70;99.90;;;;;;5002996;28;20041;-79
2023/10/08 11:58:57;;;;;;;1.55;0.80;;;15.70;99.90;;;;;;5003969;28;20312;-79
2023/10/08 12:01:27;;;;;;;3.10;0.60;;;15.70;99.90;;;;;;5001212;28;20057;-80
2023/10/08 12:03:57;;;;;;;7.68;0.77;;;15.70;99.90;;;;;;5005028;28;20073;-79
2023/10/08 12:06:25;;;;;;;;;;;15.70;99.90;;;;;;5004273;28;20054;-79
2023/10/08 12:08:53;;;;;;;0.35;0.35;;;15.60;99.90;;;;;;4996779;28;19970;-78
2023/10/08 12:11:22;;;;;;;3.17;0.60;;;15.70;99.90;;;;;;4985644;28;20050;-78
2023/10/08 12:13:49;;;;;;;2.58;0.60;;;15.60;99.90;;;;;;5002299;28;20092;-79
2023/10/08 12:16:21;;;;;;;1.10;0.60;;;15.60;99.90;;;;;;5000192;28;20046;-78
2023/10/08 12:18:58;;;;;;;2.25;1.10;;;15.60;99.90;;;;;;4992872;28;20125;-79
2023/10/08 12:21:25;;;;;;;1.25;0.50;;;15.60;99.90;;;;;;4998321;28;20045;-81
2023/10/08 12:23:51;;;;;;;3.42;0.70;;;15.60;99.90;;;;;;5001097;28;20038;-76
2023/10/08 12:26:18;;;;;;;4.13;0.70;;;15.60;99.90;;;;;;4999947;28;20045;-77
2023/10/08 12:28:45;;;;;;;0.68;0.60;;;15.60;99.90;;;;;;4985815;28;20048;-76
2023/10/08 12:31:12;;;;;;;2.25;0.80;;;15.60;99.90;;;;;;5001095;28;20052;-77
2023/10/08 12:33:40;;;;;;;0.95;0.43;;;15.70;99.90;;;;;;5004746;28;20088;-79
2023/10/08 12:36:10;;;;;;;0.52;0.35;;;15.70;99.90;;;;;;5003132;28;20524;-77
2023/10/08 12:38:37;;;;;;;0.55;0.50;;;15.70;99.90;;;;;;4986800;28;20033;-77
2023/10/08 12:41:11;;;;;;;0.35;0.35;;;15.70;99.90;;;;;;4999835;28;20042;-77
2023/10/08 12:43:38;;;;;;;3.47;0.80;;;15.80;99.90;;;;;;4983272;28;20489;-77
2023/10/08 12:46:10;;;;;;;1.58;0.63;;;15.80;99.90;;;;;;4982973;28;20141;-78
2023/10/08 12:48:36;;;;;;;15.35;1.05;;;15.80;99.90;;;;;;4996008;28;20107;-77
2023/10/08 12:51:05;;;;;;;1.65;0.52;;;15.80;99.90;;;;;;4985096;28;20109;-77
2023/10/08 12:53:36;;;;;;;3.35;0.70;;;15.80;99.90;;;;;;4994229;28;20050;-77
2023/10/08 12:56:05;;;;;;;2.03;0.45;;;15.80;99.90;;;;;;4984596;28;20043;-77
2023/10/08 12:58:38;;;;;;;0.63;0.50;;;15.80;99.90;;;;;;4982470;28;20125;-77
2023/10/08 13:01:06;;;;;;;1.17;0.43;;;15.80;99.90;;;;;;4982908;28;20142;-77
2023/10/08 13:03:32;;;;;;;3.50;0.55;;;15.80;99.90;;;;;;4982890;28;20092;-78
2023/10/08 13:06:03;;;;;;;1.15;0.80;;;15.80;99.90;;;;;;4999000;28;20487;-77
2023/10/08 13:08:35;;;;;;;2.03;0.90;;;15.80;99.90;;;;;;5002449;28;20042;-76
2023/10/08 13:11:01;;;;;;;0.98;0.40;;;15.80;99.90;;;;;;4982428;28;20064;-78
2023/10/08 13:13:27;;;;;;;2.47;0.50;;;15.80;99.90;;;;;;4999055;28;20491;-78
2023/10/08 13:15:58;;;;;;;2.55;0.57;;;15.80;99.90;;;;;;5000120;28;20141;-78
2023/10/08 13:18:26;;;;;;;1.67;0.75;;;15.80;99.90;;;;;;4997261;28;20039;-79
2023/10/08 13:20:52;;;;;;;3.70;0.93;;;15.80;99.90;;;;;;4998624;28;20046;-77
2023/10/08 13:23:20;;;;;;;6.78;1.17;;;15.80;99.90;;;;;;4991874;28;20133;-76
2023/10/08 13:25:53;;;;;;;1.15;0.57;;;15.80;99.90;;;;;;4984902;28;20137;-76
2023/10/08 13:28:20;;;;;;;1.02;0.82;;;15.80;99.90;;;;;;4994635;28;20049;-77
2023/10/08 13:30:46;;;;;;;5.30;1.17;;;15.80;99.90;;;;;;4992899;28;20049;-76
2023/10/08 13:33:12;;;;;;;2.47;1.05;;;15.80;99.90;;;;;;4993141;28;20050;-74
2023/10/08 13:35:38;;;;;;;2.47;0.70;;;15.80;99.90;;;;;;5002447;28;20381;-74
2023/10/08 13:38:09;;;;;;;2.28;0.50;;;15.90;99.90;;;;;;5001106;28;20052;-76
2023/10/08 13:40:39;;;;;;;2.28;0.57;;;15.90;99.90;;;;;;4995196;28;20073;-77
2023/10/08 13:43:06;;;;;;;0.57;0.45;;;15.90;99.90;;;;;;4996506;28;20104;-75
2023/10/08 13:45:37;;;;;;;4.28;1.75;;;15.90;99.90;;;;;;4998242;28;20038;-76
2023/10/08 13:48:05;;;;;;;3.13;0.80;;;15.90;99.90;;;;;;4999746;28;20068;-76
2023/10/08 13:50:36;;;;;;;3.42;1.00;;;15.90;99.90;;;;;;5000043;28;20042;-76
2023/10/08 13:53:01;;;;;;;4.00;0.88;;;15.90;99.90;;;;;;5001204;28;20393;-74
2023/10/08 13:55:27;;;;;;;2.28;0.50;;;15.90;99.90;;;;;;4996904;28;20038;-76
2023/10/08 13:57:54;;;;;;;1.73;0.77;;;15.90;99.90;;;;;;5000439;28;20061;-76
2023/10/08 14:00:25;;;;;;;1.23;0.98;;;15.90;99.90;;;;;;5001869;28;20073;-75
2023/10/08 14:02:52;;;;;;;2.33;0.50;;;15.90;99.90;;;;;;5001682;28;20053;-72
2023/10/08 14:05:23;;;;;;;4.88;0.93;;;15.90;99.90;;;;;;4993904;28;20053;-75
2023/10/08 14:07:51;;;;;;;1.92;1.00;;;15.90;99.90;;;;;;4980437;28;20050;-75
2023/10/08 14:10:18;;;;;;;0.73;0.70;;;15.90;99.90;;;;;;4984000;28;20060;-76
2023/10/08 14:12:49;;;;;;;2.15;0.85;;;15.90;99.90;;;;;;5000408;28;20061;-75
2023/10/08 14:15:16;;;;;;;6.93;0.65;;;15.90;99.90;;;;;;5000043;28;20046;-75
2023/10/08 14:17:48;;;;;;;1.20;0.75;;;15.90;99.90;;;;;;4999757;28;20038;-76
2023/10/08 14:20:21;;;;;;;1.40;0.90;;;15.90;99.90;;;;;;5001014;28;20100;-76